Time;durP1;ratioP1;P1;durP2;ratioP2;P2;SDS_P1;SDS_P2;PMS_P1;PMS_P2;Temp;Humidity;BMP_temperature;BMP_pressure;BME280_temperature;BME280_humidity;BME280_pressure;Samples;Min_cycle;Max_cycle;Signal;HPM_P1;HPM_P2
2023/09/19 00:02:14;;;;;;;0.75;0.60;;;;;;;;;;5050492;28;20298;-88
2023/09/19 00:04:39;;;;;;;0.70;0.70;;;;;;;;;;5065905;28;20116;-88
2023/09/19 00:07:05;;;;;;;0.88;0.28;;;;;;;;;;5049511;28;20025;-87
2023/09/19 00:09:36;;;;;;;0.80;0.65;;;;;;;;;;5052635;28;20079;-87
2023/09/19 00:12:03;;;;;;;0.70;0.70;;;;;;;;;;5054139;28;20063;-87
2023/09/19 00:14:28;;;;;;;0.30;0.30;;;;;;;;;;5069750;28;20343;-88
2023/09/19 00:16:54;;;;;;;0.45;0.45;;;;;;;;;;5055689;28;20493;-87
2023/09/19 00:19:20;;;;;;;0.28;0.28;;;;;;;;;;5043380;28;20431;-89
2023/09/19 00:21:47;;;;;;;0.30;0.30;;;;;;;;;;5065201;28;20079;-88
2023/09/19 00:24:13;;;;;;;0.50;0.50;;;;;;;;;;5034871;28;20022;-88
2023/09/19 00:26:39;;;;;;;0.68;0.63;;;;;;;;;;5054135;28;20021;-88
2023/09/19 00:29:08;;;;;;;2.72;0.40;;;;;;;;;;5034278;28;20573;-87
2023/09/19 00:31:34;;;;;;;0.50;0.50;;;;;;;;;;5061373;28;20033;-88
2023/09/19 00:34:06;;;;;;;0.43;0.30;;;;;;;;;;5054181;28;20131;-88
2023/09/19 00:36:31;;;;;;;0.60;0.60;;;;;;;;;;5050196;28;20450;-88
2023/09/19 00:38:57;;;;;;;1.50;0.70;;;;;;;;;;5050802;28;20025;-87
2023/09/19 00:41:24;;;;;;;0.40;0.40;;;;;;;;;;5060755;28;20084;-88
2023/09/19 00:43:50;;;;;;;1.52;0.75;;;;;;;;;;5053860;28;20105;-87
2023/09/19 00:46:19;;;;;;;0.43;0.43;;;;;;;;;;5058980;28;20466;-88
2023/09/19 00:48:46;;;;;;;1.98;0.63;;;;;;;;;;5061358;28;20033;-88
2023/09/19 00:51:13;;;;;;;1.25;0.65;;;;;;;;;;5070700;28;20600;-87
2023/09/19 00:53:39;;;;;;;0.20;0.20;;;;;;;;;;5070530;28;20393;-88
2023/09/19 00:56:06;;;;;;;0.75;0.68;;;;;;;;;;5070358;28;20510;-87
2023/09/19 00:58:33;;;;;;;1.17;0.35;;;;;;;;;;5070442;28;20478;-89
2023/09/19 01:00:59;;;;;;;1.80;0.65;;;;;;;;;;5070300;28;20072;-87
2023/09/19 01:03:24;;;;;;;0.80;0.80;;;;;;;;;;5070405;28;20473;-87
2023/09/19 01:05:50;;;;;;;2.30;0.70;;;;;;;;;;5070721;28;20043;-92
2023/09/19 01:08:15;;;;;;;1.25;0.68;;;;;;;;;;5070622;28;20024;-88
2023/09/19 01:10:51;;;;;;;0.43;0.43;;;;;;;;;;5075416;28;20021;-90
2023/09/19 01:13:30;;;;;;;1.13;0.65;;;;;;;;;;5063467;28;20033;-87
2023/09/19 01:16:19;;;;;;;0.68;0.45;;;;;;;;;;5068903;28;20533;-88
2023/09/19 01:19:22;;;;;;;1.00;0.28;;;;;;;;;;5070115;28;20052;-88
2023/09/19 01:22:10;;;;;;;0.80;0.70;;;;;;;;;;5053537;28;20082;-88
2023/09/19 01:24:57;;;;;;;0.30;0.30;;;;;;;;;;5053157;28;20040;-86
2023/09/19 01:27:43;;;;;;;0.40;0.40;;;;;;;;;;5054162;28;20067;-87
2023/09/19 01:30:13;;;;;;;0.38;0.32;;;;;;;;;;5016676;28;20033;-87
2023/09/19 01:32:41;;;;;;;1.75;0.43;;;;;;;;;;5070629;28;20025;-88
2023/09/19 01:35:08;;;;;;;0.75;0.75;;;;;;;;;;5070427;28;20037;-88
2023/09/19 01:37:33;;;;;;;0.98;0.70;;;;;;;;;;5070430;28;20024;-87
2023/09/19 01:40:15;;;;;;;0.60;0.40;;;;;;;;;;5067239;28;20028;-88
2023/09/19 01:42:50;;;;;;;0.98;0.75;;;;;;;;;;5051436;28;20029;-87
2023/09/19 01:45:46;;;;;;;0.50;0.50;;;;;;;;;;5052007;28;20546;-88
2023/09/19 01:48:24;;;;;;;0.68;0.50;;;;;;;;;;5068713;28;20024;-88
2023/09/19 01:50:58;;;;;;;0.32;0.30;;;;;;;;;;5059651;28;20079;-87
2023/09/19 01:53:30;;;;;;;0.95;0.50;;;;;;;;;;5058815;28;20025;-87
2023/09/19 01:55:56;;;;;;;;;;;;;;;;;;5068354;28;20026;-87
2023/09/19 01:58:43;;;;;;;0.70;0.70;;;;;;;;;;5033284;28;19908;-88
2023/09/19 02:01:13;;;;;;;0.20;0.20;;;;;;;;;;5050011;28;20043;-88
2023/09/19 02:03:40;;;;;;;0.70;0.50;;;;;;;;;;5042110;28;20108;-88
2023/09/19 02:06:11;;;;;;;4.85;0.57;;;;;;;;;;5050104;28;20021;-88
2023/09/19 02:08:36;;;;;;;0.60;0.60;;;;;;;;;;5034411;28;20360;-88
2023/09/19 02:11:02;;;;;;;0.73;0.50;;;;;;;;;;5033852;28;20087;-88
2023/09/19 02:13:28;;;;;;;0.65;0.30;;;;;;;;;;5035141;28;20079;-88
2023/09/19 02:15:53;;;;;;;0.30;0.30;;;;;;;;;;5059438;28;20032;-87
2023/09/19 02:18:19;;;;;;;0.43;0.40;;;;;;;;;;5072110;28;20021;-87
2023/09/19 02:20:45;;;;;;;0.45;0.45;;;;;;;;;;5068646;28;20040;-88
2023/09/19 02:23:12;;;;;;;0.30;0.30;;;;;;;;;;5069092;28;20024;-88
2023/09/19 02:25:40;;;;;;;1.95;0.70;;;;;;;;;;5060469;28;20059;-88
2023/09/19 02:28:05;;;;;;;0.82;0.50;;;;;;;;;;5056054;28;20040;-87
2023/09/19 02:30:32;;;;;;;0.50;0.50;;;;;;;;;;5059015;28;20025;-88
2023/09/19 02:32:57;;;;;;;0.52;0.52;;;;;;;;;;5068522;28;20390;-88
2023/09/19 02:35:23;;;;;;;1.08;0.50;;;;;;;;;;5068484;28;20032;-88
2023/09/19 02:37:48;;;;;;;0.50;0.43;;;;;;;;;;5068203;28;20021;-88
2023/09/19 02:40:25;;;;;;;0.65;0.60;;;;;;;;;;5068387;28;20024;-88
2023/09/19 02:42:54;;;;;;;0.43;0.43;;;;;;;;;;5048489;28;20033;-87
2023/09/19 02:45:20;;;;;;;2.20;0.40;;;;;;;;;;5065154;28;20024;-87
2023/09/19 02:47:49;;;;;;;3.05;0.70;;;;;;;;;;5064695;28;20029;-87
2023/09/19 02:50:15;;;;;;;1.92;0.60;;;;;;;;;;5049106;28;20487;-88
2023/09/19 02:52:47;;;;;;;0.45;0.45;;;;;;;;;;5056628;28;20497;-87
2023/09/19 02:55:17;;;;;;;1.23;0.47;;;;;;;;;;5062957;28;20032;-88
2023/09/19 02:57:46;;;;;;;0.38;0.38;;;;;;;;;;5032819;28;20025;-88
2023/09/19 03:00:12;;;;;;;0.32;0.32;;;;;;;;;;5047693;28;20051;-87
2023/09/19 03:02:39;;;;;;;1.15;0.60;;;;;;;;;;5050998;28;20378;-88
2023/09/19 03:05:05;;;;;;;1.40;0.60;;;;;;;;;;5068174;28;20025;-88
2023/09/19 03:07:31;;;;;;;0.65;0.50;;;;;;;;;;5053239;28;20032;-89
2023/09/19 03:09:56;;;;;;;0.47;0.30;;;;;;;;;;5068898;28;20406;-88
2023/09/19 03:12:22;;;;;;;0.68;0.45;;;;;;;;;;5069832;28;20043;-88
2023/09/19 03:14:48;;;;;;;0.40;0.40;;;;;;;;;;5073249;28;20033;-89
2023/09/19 03:17:14;;;;;;;1.05;0.50;;;;;;;;;;5073391;28;20027;-88
2023/09/19 03:19:40;;;;;;;1.10;0.57;;;;;;;;;;5065671;28;20049;-88
2023/09/19 03:22:06;;;;;;;1.95;0.50;;;;;;;;;;5055586;28;20122;-88
2023/09/19 03:24:33;;;;;;;0.57;0.57;;;;;;;;;;5056881;28;20021;-88
2023/09/19 03:26:59;;;;;;;0.88;0.55;;;;;;;;;;5031658;28;20037;-88
2023/09/19 03:29:25;;;;;;;0.70;0.70;;;;;;;;;;5048526;28;20033;-88
2023/09/19 03:31:51;;;;;;;0.45;0.45;;;;;;;;;;5048051;28;20030;-89
2023/09/19 03:34:17;;;;;;;0.43;0.30;;;;;;;;;;5047989;28;20037;-88
2023/09/19 03:36:42;;;;;;;0.88;0.38;;;;;;;;;;5051256;28;20079;-88
2023/09/19 03:39:08;;;;;;;0.68;0.60;;;;;;;;;;5058909;28;20021;-88
2023/09/19 03:41:36;;;;;;;0.55;0.50;;;;;;;;;;5072621;28;20032;-89
2023/09/19 03:44:01;;;;;;;0.25;0.25;;;;;;;;;;5072753;28;20373;-90
2023/09/19 03:46:27;;;;;;;0.88;0.38;;;;;;;;;;5063191;28;20466;-89
2023/09/19 03:48:54;;;;;;;1.38;0.60;;;;;;;;;;5065443;28;20391;-89
2023/09/19 03:51:20;;;;;;;0.60;0.60;;;;;;;;;;5055962;28;20025;-90
2023/09/19 03:53:45;;;;;;;0.63;0.50;;;;;;;;;;5054306;28;20028;-89
2023/09/19 03:56:10;;;;;;;0.70;0.40;;;;;;;;;;5063134;28;20025;-89
2023/09/19 03:58:39;;;;;;;0.75;0.70;;;;;;;;;;5071736;28;20020;-89
2023/09/19 04:01:06;;;;;;;0.98;0.57;;;;;;;;;;5071888;28;20017;-90
2023/09/19 04:03:45;;;;;;;0.93;0.88;;;;;;;;;;5069092;28;20083;-89
2023/09/19 04:06:12;;;;;;;0.40;0.40;;;;;;;;;;5037900;28;20080;-90
2023/09/19 04:08:37;;;;;;;0.93;0.55;;;;;;;;;;5065491;28;20040;-90
2023/09/19 04:11:03;;;;;;;1.38;0.60;;;;;;;;;;5052774;28;20021;-89
2023/09/19 04:13:28;;;;;;;0.55;0.50;;;;;;;;;;5052079;28;20036;-89
2023/09/19 04:15:53;;;;;;;0.40;0.40;;;;;;;;;;5035812;28;20121;-89
2023/09/19 04:18:20;;;;;;;0.75;0.60;;;;;;;;;;5052402;28;20116;-89
2023/09/19 04:20:53;;;;;;;0.50;0.50;;;;;;;;;;5052674;28;20033;-89
2023/09/19 04:23:25;;;;;;;0.70;0.65;;;;;;;;;;5053568;28;20040;-89
2023/09/19 04:25:51;;;;;;;0.50;0.50;;;;;;;;;;5056919;28;20017;-89
2023/09/19 04:28:16;;;;;;;1.73;0.57;;;;;;;;;;5064622;28;20394;-89
2023/09/19 04:30:41;;;;;;;1.52;0.68;;;;;;;;;;5086992;28;20079;-89
2023/09/19 04:33:07;;;;;;;1.33;0.50;;;;;;;;;;5086887;28;20280;-89
2023/09/19 04:35:33;;;;;;;0.63;0.60;;;;;;;;;;5087399;28;20017;-89
2023/09/19 04:38:06;;;;;;;0.47;0.47;;;;;;;;;;5057930;28;20507;-88
2023/09/19 04:40:35;;;;;;;1.45;0.55;;;;;;;;;;5073280;28;20029;-88
2023/09/19 04:43:00;;;;;;;0.98;0.65;;;;;;;;;;5072579;28;20033;-88
2023/09/19 04:45:27;;;;;;;0.65;0.63;;;;;;;;;;5072859;28;20023;-89
2023/09/19 04:47:53;;;;;;;0.45;0.45;;;;;;;;;;5072382;28;20120;-88
2023/09/19 04:50:45;;;;;;;0.50;0.47;;;;;;;;;;5072243;28;20479;-89
2023/09/19 04:53:10;;;;;;;0.80;0.35;;;;;;;;;;5038857;28;20029;-88
2023/09/19 04:55:36;;;;;;;0.28;0.28;;;;;;;;;;5054511;28;20086;-87
2023/09/19 04:58:02;;;;;;;1.00;0.93;;;;;;;;;;5067662;28;20513;-87
2023/09/19 05:00:30;;;;;;;0.50;0.50;;;;;;;;;;5050832;28;20091;-88
2023/09/19 05:02:57;;;;;;;1.88;0.98;;;;;;;;;;5050485;28;20064;-88
2023/09/19 05:05:23;;;;;;;1.33;0.70;;;;;;;;;;5050808;28;20555;-87
2023/09/19 05:07:49;;;;;;;0.60;0.60;;;;;;;;;;5050523;28;20397;-87
2023/09/19 05:10:15;;;;;;;1.55;0.70;;;;;;;;;;5050642;28;20471;-88
2023/09/19 05:12:41;;;;;;;0.55;0.52;;;;;;;;;;5051097;28;20034;-88
2023/09/19 05:15:08;;;;;;;0.80;0.63;;;;;;;;;;5050562;28;20086;-88
2023/09/19 05:17:34;;;;;;;1.17;0.70;;;;;;;;;;5050858;28;20060;-88
2023/09/19 05:20:24;;;;;;;1.08;0.75;;;;;;;;;;5051336;28;20163;-88
2023/09/19 05:22:57;;;;;;;0.60;0.60;;;;;;;;;;5050363;28;20022;-88
2023/09/19 05:25:22;;;;;;;5.30;0.95;;;;;;;;;;5051498;28;20646;-89
2023/09/19 05:27:48;;;;;;;0.65;0.65;;;;;;;;;;5050350;28;20064;-88
2023/09/19 05:30:14;;;;;;;0.60;0.60;;;;;;;;;;5051043;28;20395;-88
2023/09/19 05:32:40;;;;;;;1.00;0.35;;;;;;;;;;5060776;28;21726;-89
2023/09/19 05:35:09;;;;;;;0.70;0.70;;;;;;;;;;5070721;28;20451;-88
2023/09/19 05:37:35;;;;;;;0.73;0.68;;;;;;;;;;5070622;28;20470;-89
2023/09/19 05:40:01;;;;;;;1.42;1.00;;;;;;;;;;5070854;28;20032;-88
2023/09/19 05:42:27;;;;;;;2.78;0.90;;;;;;;;;;5070583;28;20036;-89
2023/09/19 05:44:52;;;;;;;3.40;0.70;;;;;;;;;;5071438;28;20028;-88
2023/09/19 05:47:18;;;;;;;1.88;0.90;;;;;;;;;;5070762;28;20052;-89
2023/09/19 05:49:43;;;;;;;1.17;0.95;;;;;;;;;;5071737;28;20040;-89
2023/09/19 05:52:09;;;;;;;1.58;0.70;;;;;;;;;;5054468;28;20051;-88
2023/09/19 05:54:34;;;;;;;1.92;1.20;;;;;;;;;;5070464;28;20040;-88
2023/09/19 05:57:01;;;;;;;0.55;0.55;;;;;;;;;;5036789;28;20075;-88
2023/09/19 05:59:27;;;;;;;1.55;0.70;;;;;;;;;;5069566;28;20036;-88
2023/09/19 06:01:53;;;;;;;0.88;0.88;;;;;;;;;;5069897;28;20021;-88
2023/09/19 06:04:19;;;;;;;0.60;0.60;;;;;;;;;;5035089;28;20033;-88
2023/09/19 06:06:45;;;;;;;0.60;0.60;;;;;;;;;;5069986;28;20029;-88
2023/09/19 06:09:10;;;;;;;1.35;0.82;;;;;;;;;;5063312;28;20032;-88
2023/09/19 06:11:36;;;;;;;1.20;0.95;;;;;;;;;;5036980;28;20029;-89
2023/09/19 06:14:04;;;;;;;1.85;0.95;;;;;;;;;;5080714;28;20005;-89
2023/09/19 06:16:31;;;;;;;1.15;0.65;;;;;;;;;;5069822;28;20025;-89
2023/09/19 06:18:57;;;;;;;2.22;1.05;;;;;;;;;;5068882;28;20036;-88
2023/09/19 06:21:23;;;;;;;1.88;1.17;;;;;;;;;;5068656;28;20021;-88
2023/09/19 06:23:49;;;;;;;2.35;0.93;;;;;;;;;;5052243;28;20085;-88
2023/09/19 06:26:14;;;;;;;2.15;0.85;;;;;;;;;;5051976;28;20115;-88
2023/09/19 06:28:40;;;;;;;1.58;1.10;;;;;;;;;;5057282;28;20060;-89
2023/09/19 06:31:09;;;;;;;1.13;0.80;;;;;;;;;;5065123;28;20040;-87
2023/09/19 06:33:38;;;;;;;0.90;0.75;;;;;;;;;;5032979;28;20055;-88
2023/09/19 06:36:04;;;;;;;1.08;0.98;;;;;;;;;;5032068;28;20484;-88
2023/09/19 06:38:30;;;;;;;1.88;1.00;;;;;;;;;;5033534;28;20032;-87
2023/09/19 06:40:55;;;;;;;2.50;1.30;;;;;;;;;;5034607;28;20025;-88
2023/09/19 06:43:21;;;;;;;1.08;0.98;;;;;;;;;;5038430;28;20026;-87
2023/09/19 06:45:46;;;;;;;0.80;0.73;;;;;;;;;;5032376;28;20021;-87
2023/09/19 06:48:12;;;;;;;1.10;0.98;;;;;;;;;;5031418;28;20028;-87
2023/09/19 06:50:38;;;;;;;0.82;0.82;;;;;;;;;;5047761;28;20031;-88
2023/09/19 06:53:04;;;;;;;1.00;0.90;;;;;;;;;;5033678;28;20434;-88
2023/09/19 06:55:30;;;;;;;1.88;1.17;;;;;;;;;;5033238;28;20025;-89
2023/09/19 06:57:57;;;;;;;0.90;0.90;;;;;;;;;;5032838;28;20033;-88
2023/09/19 07:00:23;;;;;;;1.20;1.10;;;;;;;;;;5032276;28;20040;-90
2023/09/19 07:03:03;;;;;;;0.90;0.90;;;;;;;;;;5065376;28;20029;-89
2023/09/19 07:05:31;;;;;;;4.28;1.08;;;;;;;;;;5047845;28;20021;-90
2023/09/19 07:07:58;;;;;;;2.10;1.30;;;;;;;;;;5064405;28;20087;-90
2023/09/19 07:10:25;;;;;;;2.55;0.80;;;;;;;;;;5032896;28;20029;-89
2023/09/19 07:13:08;;;;;;;1.25;1.10;;;;;;;;;;5038881;28;20029;-89
2023/09/19 07:15:36;;;;;;;1.08;0.98;;;;;;;;;;5054744;28;20022;-89
2023/09/19 07:18:02;;;;;;;1.40;0.98;;;;;;;;;;5039477;28;20475;-89
2023/09/19 07:20:31;;;;;;;2.38;0.95;;;;;;;;;;5055244;28;20036;-89
2023/09/19 07:22:59;;;;;;;1.67;0.90;;;;;;;;;;5037863;28;20684;-89
2023/09/19 07:25:25;;;;;;;2.97;0.85;;;;;;;;;;5053814;28;20029;-89
2023/09/19 07:27:51;;;;;;;4.68;1.13;;;;;;;;;;5037716;28;20089;-89
2023/09/19 07:30:16;;;;;;;1.13;1.00;;;;;;;;;;5054390;28;20456;-89
2023/09/19 07:32:42;;;;;;;1.73;1.23;;;;;;;;;;5037405;28;20025;-89
2023/09/19 07:35:07;;;;;;;1.15;1.02;;;;;;;;;;5038026;28;20367;-90
2023/09/19 07:37:33;;;;;;;1.48;0.93;;;;;;;;;;5037663;28;20022;-89
2023/09/19 07:40:12;;;;;;;1.35;1.10;;;;;;;;;;5053925;28;20037;-89
2023/09/19 07:42:40;;;;;;;1.65;1.00;;;;;;;;;;5053991;28;20033;-88
2023/09/19 07:45:09;;;;;;;1.48;0.90;;;;;;;;;;5038072;28;20233;-88
2023/09/19 07:47:36;;;;;;;2.78;1.08;;;;;;;;;;5058173;28;20418;-89
2023/09/19 07:50:02;;;;;;;1.60;1.33;;;;;;;;;;5053957;28;20116;-89
2023/09/19 07:52:28;;;;;;;0.73;0.70;;;;;;;;;;5037149;28;20076;-89
2023/09/19 07:54:54;;;;;;;2.35;1.00;;;;;;;;;;5056640;28;20100;-88
2023/09/19 07:57:20;;;;;;;1.75;1.15;;;;;;;;;;5069863;28;20112;-88
2023/09/19 07:59:45;;;;;;;3.72;0.88;;;;;;;;;;5070643;28;20029;-88
2023/09/19 08:02:15;;;;;;;1.95;0.80;;;;;;;;;;5057629;28;20394;-88
2023/09/19 08:04:43;;;;;;;0.75;0.75;;;;;;;;;;5069823;28;20025;-88
2023/09/19 08:07:11;;;;;;;1.33;0.80;;;;;;;;;;5073629;28;20028;-88
2023/09/19 08:09:38;;;;;;;0.85;0.85;;;;;;;;;;5096598;28;20032;-87
2023/09/19 08:12:04;;;;;;;1.00;0.60;;;;;;;;;;5081470;28;20020;-88
2023/09/19 08:14:30;;;;;;;0.60;0.60;;;;;;;;;;5088935;28;20036;-87
2023/09/19 08:16:58;;;;;;;0.63;0.60;;;;;;;;;;5094441;28;20181;-88
2023/09/19 08:19:28;;;;;;;0.80;0.70;;;;;;;;;;5078266;28;20036;-88
2023/09/19 08:22:00;;;;;;;1.63;0.75;;;;;;;;;;5069932;28;20083;-87
2023/09/19 08:24:28;;;;;;;1.17;0.70;;;;;;;;;;5051564;28;20032;-87
2023/09/19 08:26:57;;;;;;;0.90;0.90;;;;;;;;;;5066287;28;20032;-88
2023/09/19 08:29:27;;;;;;;3.10;0.60;;;;;;;;;;5065356;28;20024;-87
2023/09/19 08:31:57;;;;;;;0.98;0.98;;;;;;;;;;5051781;28;20055;-87
2023/09/19 08:34:23;;;;;;;2.65;0.68;;;;;;;;;;5049291;28;20100;-88
2023/09/19 08:36:56;;;;;;;0.80;0.80;;;;;;;;;;5054197;28;20029;-88
2023/09/19 08:39:22;;;;;;;1.20;0.70;;;;;;;;;;5054680;28;20021;-88
2023/09/19 08:41:48;;;;;;;0.40;0.40;;;;;;;;;;5068378;28;20546;-87
2023/09/19 08:44:14;;;;;;;0.65;0.65;;;;;;;;;;5054292;28;20088;-88
2023/09/19 08:46:41;;;;;;;1.02;0.88;;;;;;;;;;5069599;28;20017;-88
2023/09/19 08:49:31;;;;;;;1.77;0.88;;;;;;;;;;5054296;28;20493;-88
2023/09/19 08:52:09;;;;;;;4.40;1.00;;;;;;;;;;5061248;28;20028;-88
2023/09/19 08:54:39;;;;;;;0.55;0.50;;;;;;;;;;5034870;28;20113;-87
2023/09/19 08:57:11;;;;;;;1.20;0.60;;;;;;;;;;5057230;28;20565;-88
2023/09/19 08:59:41;;;;;;;1.38;0.80;;;;;;;;;;5062870;28;20029;-87
2023/09/19 09:02:12;;;;;;;1.15;0.77;;;;;;;;;;5053920;28;20116;-87
2023/09/19 09:04:42;;;;;;;0.60;0.60;;;;;;;;;;5035778;28;20033;-87
2023/09/19 09:07:12;;;;;;;0.85;0.82;;;;;;;;;;5034863;28;20123;-87
2023/09/19 09:09:42;;;;;;;0.70;0.70;;;;;;;;;;5066676;28;20044;-87
2023/09/19 09:12:12;;;;;;;1.95;0.98;;;;;;;;;;5054332;28;20020;-87
2023/09/19 09:14:39;;;;;;;0.60;0.60;;;;;;;;;;5047642;28;20018;-88
2023/09/19 09:17:05;;;;;;;0.85;0.80;;;;;;;;;;5069544;28;20032;-87
2023/09/19 09:19:38;;;;;;;0.43;0.43;;;;;;;;;;5066097;28;20025;-88
2023/09/19 09:22:31;;;;;;;0.40;0.40;;;;;;;;;;5035540;28;20060;-88
2023/09/19 09:24:58;;;;;;;0.60;0.60;;;;;;;;;;5054297;28;20048;-87
2023/09/19 09:27:31;;;;;;;0.98;0.85;;;;;;;;;;5073444;28;20016;-87
2023/09/19 09:29:56;;;;;;;0.80;0.80;;;;;;;;;;5079133;28;20087;-87
2023/09/19 09:32:28;;;;;;;0.85;0.55;;;;;;;;;;5056740;28;20029;-87
2023/09/19 09:34:56;;;;;;;0.60;0.60;;;;;;;;;;5054405;28;20478;-86
2023/09/19 09:37:24;;;;;;;1.17;0.70;;;;;;;;;;5056196;28;20043;-85
2023/09/19 09:39:58;;;;;;;0.80;0.57;;;;;;;;;;5055919;28;20020;-85
2023/09/19 09:42:35;;;;;;;1.15;0.70;;;;;;;;;;5035996;28;20017;-86
2023/09/19 09:45:38;;;;;;;0.43;0.43;;;;;;;;;;5047398;28;20088;-86
2023/09/19 09:48:14;;;;;;;1.33;0.70;;;;;;;;;;5047192;28;20020;-86
2023/09/19 09:50:56;;;;;;;1.52;0.82;;;;;;;;;;5039272;28;20108;-86
2023/09/19 09:53:31;;;;;;;;;;;;;;;;;;5073265;28;20113;-86
2023/09/19 09:56:07;;;;;;;0.70;0.60;;;;;;;;;;5053027;28;20011;-86
2023/09/19 09:58:48;;;;;;;2.92;1.08;;;;;;;;;;5070658;28;20040;-85
2023/09/19 10:01:15;;;;;;;0.75;0.60;;;;;;;;;;5064318;28;20029;-86
2023/09/19 10:03:45;;;;;;;2.20;0.60;;;;;;;;;;5067804;28;20049;-85
2023/09/19 10:06:28;;;;;;;3.03;0.65;;;;;;;;;;5057405;28;20021;-86
2023/09/19 10:11:53;;;;;;;0.65;0.65;;;;;;;;;;5045004;28;20089;-85
2023/09/19 10:21:08;;;;;;;1.75;0.70;;;;;;;;;;5060345;28;20192;-87
2023/09/19 10:23:36;;;;;;;1.73;0.70;;;;;;;;;;5066935;28;20028;-87
2023/09/19 10:26:04;;;;;;;0.55;0.43;;;;;;;;;;5074584;28;20017;-87
2023/09/19 10:28:35;;;;;;;1.40;0.77;;;;;;;;;;5041385;28;20032;-86
2023/09/19 10:31:09;;;;;;;0.65;0.55;;;;;;;;;;5056398;28;20016;-85
2023/09/19 10:33:37;;;;;;;0.57;0.57;;;;;;;;;;5071937;28;20500;-86
2023/09/19 10:36:09;;;;;;;1.23;0.93;;;;;;;;;;5056696;28;20031;-86
2023/09/19 10:38:40;;;;;;;1.52;0.88;;;;;;;;;;5068766;28;20083;-87
2023/09/19 10:41:10;;;;;;;0.60;0.60;;;;;;;;;;5046435;28;20013;-87
2023/09/19 10:43:39;;;;;;;0.85;0.50;;;;;;;;;;5065413;28;20096;-87
2023/09/19 10:46:11;;;;;;;3.70;1.25;;;;;;;;;;5050405;28;20028;-87
2023/09/19 10:48:53;;;;;;;0.93;0.88;;;;;;;;;;5050131;28;20049;-88
2023/09/19 10:51:47;;;;;;;3.50;0.65;;;;;;;;;;5051613;28;20029;-87
2023/09/19 10:54:17;;;;;;;1.10;0.88;;;;;;;;;;5034388;28;20036;-88
2023/09/19 10:57:08;;;;;;;0.50;0.50;;;;;;;;;;5061386;28;20053;-88
2023/09/19 11:00:21;;;;;;;2.78;0.70;;;;;;;;;;5061127;28;20048;-87
2023/09/19 11:03:18;;;;;;;0.80;0.70;;;;;;;;;;5058344;28;20037;-87
2023/09/19 11:06:04;;;;;;;0.57;0.57;;;;;;;;;;5047668;28;20029;-87
2023/09/19 11:08:34;;;;;;;1.00;0.77;;;;;;;;;;5048365;28;20025;-87
2023/09/19 11:11:03;;;;;;;0.40;0.40;;;;;;;;;;5054127;28;20090;-87
2023/09/19 11:13:37;;;;;;;0.88;0.55;;;;;;;;;;5068706;28;20029;-87
2023/09/19 11:16:08;;;;;;;7.72;0.77;;;;;;;;;;5052729;28;20475;-87
2023/09/19 11:18:54;;;;;;;0.70;0.68;;;;;;;;;;5050873;28;20065;-87
2023/09/19 11:21:32;;;;;;;0.63;0.50;;;;;;;;;;5071402;28;20037;-87
2023/09/19 11:24:17;;;;;;;2.03;0.60;;;;;;;;;;5056318;28;20084;-87
2023/09/19 11:26:49;;;;;;;1.50;0.60;;;;;;;;;;5063344;28;20075;-87
2023/09/19 11:29:24;;;;;;;;;;;;;;;;;;5061635;28;20039;-88
2023/09/19 11:31:51;;;;;;;1.13;1.02;;;;;;;;;;5057683;28;20282;-88
2023/09/19 11:34:35;;;;;;;0.90;0.60;;;;;;;;;;5051713;28;20036;-87
2023/09/19 11:37:03;;;;;;;0.80;0.55;;;;;;;;;;5034242;28;20026;-87
2023/09/19 11:39:29;;;;;;;2.50;0.50;;;;;;;;;;5043215;28;20386;-87
2023/09/19 11:41:56;;;;;;;0.55;0.55;;;;;;;;;;5052835;28;20479;-87
2023/09/19 11:44:38;;;;;;;0.60;0.60;;;;;;;;;;5037186;28;20029;-88
2023/09/19 11:47:18;;;;;;;0.75;0.63;;;;;;;;;;5069266;28;20085;-88
2023/09/19 11:49:44;;;;;;;2.10;0.70;;;;;;;;;;5054430;28;20501;-89
2023/09/19 11:52:24;;;;;;;1.00;0.57;;;;;;;;;;5058191;28;20116;-90
2023/09/19 11:55:21;;;;;;;0.35;0.35;;;;;;;;;;5034383;28;20025;-88
2023/09/19 11:57:59;;;;;;;0.90;0.70;;;;;;;;;;5034986;28;20037;-88
2023/09/19 12:03:54;;;;;;;1.48;0.77;;;;;;;;;;5016076;28;20025;-89
2023/09/19 12:06:27;;;;;;;1.65;1.10;;;;;;;;;;5053204;28;20036;-88
2023/09/19 12:09:08;;;;;;;0.57;0.57;;;;;;;;;;5054945;28;20021;-88
2023/09/19 12:11:46;;;;;;;0.70;0.70;;;;;;;;;;5049265;28;20048;-89
2023/09/19 12:14:22;;;;;;;0.95;0.80;;;;;;;;;;5064967;28;20091;-88
2023/09/19 12:16:55;;;;;;;0.73;0.50;;;;;;;;;;5035967;28;20033;-89
2023/09/19 12:19:24;;;;;;;1.00;0.45;;;;;;;;;;5038338;28;20572;-89
2023/09/19 12:22:11;;;;;;;0.47;0.47;;;;;;;;;;5056128;28;20039;-88
2023/09/19 12:24:45;;;;;;;0.88;0.70;;;;;;;;;;5054695;28;20076;-88
2023/09/19 12:27:20;;;;;;;0.52;0.52;;;;;;;;;;5022172;28;20108;-88
2023/09/19 12:29:59;;;;;;;1.50;0.70;;;;;;;;;;5067742;28;20087;-89
2023/09/19 12:32:55;;;;;;;1.98;0.50;;;;;;;;;;5067979;28;20312;-89
2023/09/19 12:46:11;;;;;;;0.77;0.70;;;;;;;;;;4937290;29;20070;-89
2023/09/19 12:48:37;;;;;;;0.73;0.50;;;;;;;;;;4956521;28;20089;-89
2023/09/19 12:51:08;;;;;;;1.20;1.10;;;;;;;;;;4987968;28;20475;-88
2023/09/19 12:53:57;;;;;;;1.55;0.80;;;;;;;;;;5003433;28;20038;-88
2023/09/19 13:14:19;;;;;;;0.60;0.60;;;;;;;;;;4860132;29;20047;-88
2023/09/19 13:20:32;;;;;;;1.33;0.95;;;;;;;;;;4827517;29;20137;-88
2023/09/19 13:23:08;;;;;;;1.00;0.73;;;;;;;;;;4821829;29;20627;-88
2023/09/19 13:25:34;;;;;;;1.08;0.70;;;;;;;;;;4968665;28;20174;-88
2023/09/19 13:28:04;;;;;;;0.98;0.60;;;;;;;;;;5054222;28;20033;-88
2023/09/19 13:30:40;;;;;;;0.65;0.47;;;;;;;;;;5055026;28;20115;-88
2023/09/19 13:33:09;;;;;;;1.83;0.77;;;;;;;;;;5070918;28;20048;-88
2023/09/19 13:35:38;;;;;;;1.02;0.57;;;;;;;;;;5063144;28;20083;-87
2023/09/19 13:38:04;;;;;;;0.95;0.85;;;;;;;;;;5062604;28;20040;-88
2023/09/19 13:40:34;;;;;;;0.70;0.55;;;;;;;;;;5056051;28;20074;-87
2023/09/19 13:43:00;;;;;;;0.77;0.63;;;;;;;;;;5065593;28;20025;-88
2023/09/19 13:45:30;;;;;;;0.43;0.40;;;;;;;;;;5044479;28;20029;-87
2023/09/19 13:47:59;;;;;;;3.13;0.57;;;;;;;;;;5059627;28;20529;-86
2023/09/19 13:50:25;;;;;;;1.73;0.77;;;;;;;;;;5042895;28;20029;-86
2023/09/19 13:52:53;;;;;;;1.30;0.70;;;;;;;;;;5052468;28;20394;-87
2023/09/19 13:55:22;;;;;;;0.80;0.80;;;;;;;;;;5070114;28;20025;-87
2023/09/19 13:57:54;;;;;;;0.82;0.65;;;;;;;;;;5056220;28;20033;-87
2023/09/19 14:00:28;;;;;;;1.02;0.65;;;;;;;;;;5065553;28;20060;-88
2023/09/19 14:02:53;;;;;;;0.63;0.50;;;;;;;;;;5052844;28;20036;-88
2023/09/19 14:05:20;;;;;;;0.52;0.50;;;;;;;;;;5047479;28;20028;-86
2023/09/19 14:07:48;;;;;;;0.75;0.50;;;;;;;;;;5062924;28;20025;-87
2023/09/19 14:10:14;;;;;;;1.60;0.70;;;;;;;;;;5035012;28;20028;-87
2023/09/19 14:12:44;;;;;;;0.50;0.50;;;;;;;;;;5051139;28;20025;-86
2023/09/19 14:15:10;;;;;;;1.52;0.57;;;;;;;;;;5048420;28;20024;-87
2023/09/19 14:17:35;;;;;;;1.08;0.73;;;;;;;;;;5059698;28;20056;-87
2023/09/19 14:20:01;;;;;;;3.22;0.70;;;;;;;;;;5061745;28;20025;-86
2023/09/19 14:22:26;;;;;;;4.38;0.88;;;;;;;;;;5064354;28;20068;-87
2023/09/19 14:24:52;;;;;;;1.83;1.00;;;;;;;;;;5081186;28;20048;-87
2023/09/19 14:27:18;;;;;;;0.55;0.50;;;;;;;;;;5088644;28;20033;-87
2023/09/19 14:29:43;;;;;;;1.25;0.95;;;;;;;;;;5068898;28;20021;-86
2023/09/19 14:32:09;;;;;;;2.25;0.60;;;;;;;;;;5093936;28;20436;-85
2023/09/19 14:34:36;;;;;;;1.20;1.00;;;;;;;;;;5059587;28;20048;-87
2023/09/19 14:37:02;;;;;;;1.02;0.80;;;;;;;;;;5028750;28;20469;-88
2023/09/19 14:39:28;;;;;;;2.92;0.60;;;;;;;;;;5043586;28;20060;-87
2023/09/19 14:41:53;;;;;;;2.40;0.77;;;;;;;;;;5067762;28;20486;-86
2023/09/19 14:44:19;;;;;;;1.48;0.70;;;;;;;;;;5069996;28;20040;-87
2023/09/19 14:46:45;;;;;;;0.60;0.57;;;;;;;;;;5054371;28;20013;-87
2023/09/19 14:49:11;;;;;;;0.82;0.80;;;;;;;;;;5069164;28;20096;-87
2023/09/19 14:51:39;;;;;;;0.98;0.70;;;;;;;;;;5069039;28;20044;-87
2023/09/19 14:54:05;;;;;;;1.00;0.68;;;;;;;;;;5058147;28;20029;-86
2023/09/19 14:56:30;;;;;;;1.05;0.80;;;;;;;;;;5050557;28;20059;-86
2023/09/19 14:58:56;;;;;;;0.50;0.50;;;;;;;;;;5045876;28;20407;-86
2023/09/19 15:01:22;;;;;;;0.85;0.60;;;;;;;;;;5055476;28;20074;-86
2023/09/19 15:03:49;;;;;;;1.98;0.70;;;;;;;;;;5050747;28;20028;-86
2023/09/19 15:06:15;;;;;;;0.73;0.57;;;;;;;;;;5053614;28;20084;-87
2023/09/19 15:08:45;;;;;;;0.82;0.70;;;;;;;;;;5049736;28;20065;-86
2023/09/19 15:11:12;;;;;;;1.70;0.53;;;;;;;;;;5068172;28;20114;-86
2023/09/19 15:13:37;;;;;;;2.30;0.88;;;;;;;;;;5063313;28;20033;-86
2023/09/19 15:16:04;;;;;;;1.20;0.57;;;;;;;;;;5069160;28;20035;-85
2023/09/19 15:18:32;;;;;;;1.13;0.73;;;;;;;;;;5073553;28;20020;-85
2023/09/19 15:21:00;;;;;;;1.63;0.60;;;;;;;;;;5077760;28;20024;-84
2023/09/19 15:23:26;;;;;;;1.05;0.50;;;;;;;;;;5055815;28;20116;-86
2023/09/19 15:25:56;;;;;;;1.83;0.68;;;;;;;;;;5062750;28;20101;-87
2023/09/19 15:28:22;;;;;;;0.90;0.75;;;;;;;;;;5064076;28;20060;-86
2023/09/19 15:30:57;;;;;;;0.65;0.65;;;;;;;;;;5044300;28;20109;-86
2023/09/19 15:33:22;;;;;;;1.35;0.60;;;;;;;;;;5054586;28;20045;-86
2023/09/19 15:35:48;;;;;;;0.50;0.50;;;;;;;;;;5072710;28;20032;-86
2023/09/19 15:38:13;;;;;;;0.50;0.50;;;;;;;;;;5065822;28;20120;-86
2023/09/19 15:40:46;;;;;;;0.98;0.55;;;;;;;;;;5051204;28;20061;-87
2023/09/19 15:43:12;;;;;;;1.35;0.73;;;;;;;;;;5051996;28;20032;-87
2023/09/19 15:45:37;;;;;;;0.50;0.50;;;;;;;;;;5065230;28;20040;-86